sensor_id;sensor_type;location;lat;lon;timestamp;P1;durP1;ratioP1;P2;durP2;ratioP2
61385;SDS011;47256;18.904;-99.054;2022-10-15T00:01:29;16.42;;;6.35;;
61385;SDS011;47256;18.904;-99.054;2022-10-15T00:03:56;15.00;;;6.13;;
61385;SDS011;47256;18.904;-99.054;2022-10-15T00:06:25;17.80;;;7.32;;
61385;SDS011;47256;18.904;-99.054;2022-10-15T00:08:52;18.20;;;6.50;;
61385;SDS011;47256;18.904;-99.054;2022-10-15T00:11:21;31.95;;;8.30;;
61385;SDS011;47256;18.904;-99.054;2022-10-15T00:13:54;24.73;;;7.50;;
61385;SDS011;47256;18.904;-99.054;2022-10-15T00:16:24;17.08;;;7.43;;
61385;SDS011;47256;18.904;-99.054;2022-10-15T00:18:54;21.60;;;8.00;;
61385;SDS011;47256;18.904;-99.054;2022-10-15T00:21:23;24.33;;;10.77;;
61385;SDS011;47256;18.904;-99.054;2022-10-15T00:23:50;26.20;;;11.43;;
61385;SDS011;47256;18.904;-99.054;2022-10-15T00:26:21;28.48;;;9.93;;
61385;SDS011;47256;18.904;-99.054;2022-10-15T00:28:55;18.77;;;9.52;;
61385;SDS011;47256;18.904;-99.054;2022-10-15T00:31:25;25.33;;;10.07;;
61385;SDS011;47256;18.904;-99.054;2022-10-15T00:33:57;15.10;;;9.45;;
61385;SDS011;47256;18.904;-99.054;2022-10-15T00:36:31;17.15;;;9.77;;
61385;SDS011;47256;18.904;-99.054;2022-10-15T00:39:03;17.92;;;9.13;;
61385;SDS011;47256;18.904;-99.054;2022-10-15T00:41:36;21.08;;;10.20;;
61385;SDS011;47256;18.904;-99.054;2022-10-15T00:44:56;35.80;;;11.88;;
61385;SDS011;47256;18.904;-99.054;2022-10-15T00:49:57;25.02;;;12.40;;
61385;SDS011;47256;18.904;-99.054;2022-10-15T00:55:36;27.05;;;12.38;;
61385;SDS011;47256;18.904;-99.054;2022-10-15T00:58:19;27.67;;;12.93;;
61385;SDS011;47256;18.904;-99.054;2022-10-15T01:00:54;22.85;;;12.68;;
61385;SDS011;47256;18.904;-99.054;2022-10-15T01:03:22;22.27;;;12.02;;
61385;SDS011;47256;18.904;-99.054;2022-10-15T01:05:50;21.05;;;11.40;;
61385;SDS011;47256;18.904;-99.054;2022-10-15T01:08:23;19.00;;;7.93;;
61385;SDS011;47256;18.904;-99.054;2022-10-15T01:13:47;15.27;;;7.78;;
61385;SDS011;47256;18.904;-99.054;2022-10-15T01:16:38;16.00;;;8.60;;
61385;SDS011;47256;18.904;-99.054;2022-10-15T01:22:35;17.50;;;8.13;;
61385;SDS011;47256;18.904;-99.054;2022-10-15T01:31:52;22.33;;;10.80;;
61385;SDS011;47256;18.904;-99.054;2022-10-15T01:37:11;21.73;;;9.95;;
61385;SDS011;47256;18.904;-99.054;2022-10-15T01:39:54;24.02;;;9.93;;
61385;SDS011;47256;18.904;-99.054;2022-10-15T01:42:44;16.77;;;8.40;;
61385;SDS011;47256;18.904;-99.054;2022-10-15T01:45:21;18.65;;;9.20;;
61385;SDS011;47256;18.904;-99.054;2022-10-15T01:48:15;23.90;;;8.60;;
61385;SDS011;47256;18.904;-99.054;2022-10-15T01:50:45;21.30;;;9.05;;
61385;SDS011;47256;18.904;-99.054;2022-10-15T01:53:21;22.27;;;7.80;;
61385;SDS011;47256;18.904;-99.054;2022-10-15T01:55:55;19.98;;;8.48;;
61385;SDS011;47256;18.904;-99.054;2022-10-15T01:58:26;19.42;;;8.85;;
61385;SDS011;47256;18.904;-99.054;2022-10-15T02:00:56;20.25;;;10.02;;
61385;SDS011;47256;18.904;-99.054;2022-10-15T02:03:26;29.42;;;11.50;;
61385;SDS011;47256;18.904;-99.054;2022-10-15T02:05:59;23.92;;;11.77;;
61385;SDS011;47256;18.904;-99.054;2022-10-15T02:08:37;33.80;;;13.50;;
61385;SDS011;47256;18.904;-99.054;2022-10-15T02:11:12;38.63;;;14.52;;
61385;SDS011;47256;18.904;-99.054;2022-10-15T02:14:03;54.30;;;14.65;;
61385;SDS011;47256;18.904;-99.054;2022-10-15T02:16:48;38.92;;;13.70;;
61385;SDS011;47256;18.904;-99.054;2022-10-15T02:25:48;98.05;;;45.85;;
61385;SDS011;47256;18.904;-99.054;2022-10-15T02:28:17;73.47;;;33.75;;
61385;SDS011;47256;18.904;-99.054;2022-10-15T02:30:47;53.97;;;26.17;;
61385;SDS011;47256;18.904;-99.054;2022-10-15T02:33:20;44.08;;;17.65;;
61385;SDS011;47256;18.904;-99.054;2022-10-15T02:35:50;37.25;;;17.40;;
61385;SDS011;47256;18.904;-99.054;2022-10-15T02:38:20;45.33;;;17.00;;
61385;SDS011;47256;18.904;-99.054;2022-10-15T02:40:54;28.85;;;14.60;;
61385;SDS011;47256;18.904;-99.054;2022-10-15T02:43:23;29.15;;;13.80;;
61385;SDS011;47256;18.904;-99.054;2022-10-15T02:45:52;38.17;;;14.50;;
61385;SDS011;47256;18.904;-99.054;2022-10-15T02:48:20;31.92;;;13.88;;
61385;SDS011;47256;18.904;-99.054;2022-10-15T02:50:49;37.78;;;14.23;;
61385;SDS011;47256;18.904;-99.054;2022-10-15T02:53:17;35.85;;;14.52;;
61385;SDS011;47256;18.904;-99.054;2022-10-15T02:55:47;36.95;;;14.68;;
61385;SDS011;47256;18.904;-99.054;2022-10-15T02:58:16;30.13;;;13.80;;
61385;SDS011;47256;18.904;-99.054;2022-10-15T03:00:48;21.15;;;13.13;;
61385;SDS011;47256;18.904;-99.054;2022-10-15T03:03:16;25.95;;;13.15;;
61385;SDS011;47256;18.904;-99.054;2022-10-15T03:05:46;21.95;;;12.40;;
61385;SDS011;47256;18.904;-99.054;2022-10-15T03:08:16;30.02;;;13.43;;
61385;SDS011;47256;18.904;-99.054;2022-10-15T03:10:47;17.90;;;12.20;;
61385;SDS011;47256;18.904;-99.054;2022-10-15T03:13:18;28.70;;;12.80;;
61385;SDS011;47256;18.904;-99.054;2022-10-15T03:15:50;25.25;;;13.38;;
61385;SDS011;47256;18.904;-99.054;2022-10-15T03:18:21;29.75;;;12.65;;
61385;SDS011;47256;18.904;-99.054;2022-10-15T03:20:52;30.67;;;13.98;;
61385;SDS011;47256;18.904;-99.054;2022-10-15T03:23:21;19.08;;;11.43;;
61385;SDS011;47256;18.904;-99.054;2022-10-15T03:25:56;25.67;;;11.95;;
61385;SDS011;47256;18.904;-99.054;2022-10-15T03:28:27;25.77;;;11.10;;
61385;SDS011;47256;18.904;-99.054;2022-10-15T03:30:56;26.98;;;11.60;;
61385;SDS011;47256;18.904;-99.054;2022-10-15T03:33:26;17.67;;;10.82;;
61385;SDS011;47256;18.904;-99.054;2022-10-15T03:35:57;26.27;;;11.73;;
61385;SDS011;47256;18.904;-99.054;2022-10-15T03:38:30;18.35;;;10.95;;
61385;SDS011;47256;18.904;-99.054;2022-10-15T03:40:59;25.02;;;12.10;;
61385;SDS011;47256;18.904;-99.054;2022-10-15T03:43:38;25.92;;;12.95;;
61385;SDS011;47256;18.904;-99.054;2022-10-15T03:46:06;35.35;;;13.90;;
61385;SDS011;47256;18.904;-99.054;2022-10-15T03:48:39;22.38;;;11.48;;
61385;SDS011;47256;18.904;-99.054;2022-10-15T03:51:13;23.70;;;11.60;;
61385;SDS011;47256;18.904;-99.054;2022-10-15T03:53:41;17.40;;;11.07;;
61385;SDS011;47256;18.904;-99.054;2022-10-15T03:56:09;22.23;;;11.07;;
61385;SDS011;47256;18.904;-99.054;2022-10-15T03:58:43;23.02;;;11.05;;
61385;SDS011;47256;18.904;-99.054;2022-10-15T04:01:15;14.05;;;9.88;;
61385;SDS011;47256;18.904;-99.054;2022-10-15T04:03:50;17.65;;;10.48;;
61385;SDS011;47256;18.904;-99.054;2022-10-15T04:06:20;14.43;;;9.90;;
61385;SDS011;47256;18.904;-99.054;2022-10-15T04:08:47;17.30;;;9.77;;
61385;SDS011;47256;18.904;-99.054;2022-10-15T04:11:22;19.77;;;8.93;;
61385;SDS011;47256;18.904;-99.054;2022-10-15T04:13:59;15.32;;;10.02;;
61385;SDS011;47256;18.904;-99.054;2022-10-15T04:16:32;16.15;;;9.20;;
61385;SDS011;47256;18.904;-99.054;2022-10-15T04:19:07;17.90;;;9.10;;
61385;SDS011;47256;18.904;-99.054;2022-10-15T04:21:35;16.27;;;9.00;;
61385;SDS011;47256;18.904;-99.054;2022-10-15T04:24:03;13.23;;;9.63;;
61385;SDS011;47256;18.904;-99.054;2022-10-15T04:26:37;17.65;;;9.05;;
61385;SDS011;47256;18.904;-99.054;2022-10-15T04:29:05;12.30;;;9.25;;
61385;SDS011;47256;18.904;-99.054;2022-10-15T04:31:33;15.65;;;9.20;;
61385;SDS011;47256;18.904;-99.054;2022-10-15T04:34:00;15.27;;;8.45;;
61385;SDS011;47256;18.904;-99.054;2022-10-15T04:36:28;15.63;;;8.85;;
61385;SDS011;47256;18.904;-99.054;2022-10-15T04:39:05;13.45;;;8.70;;
61385;SDS011;47256;18.904;-99.054;2022-10-15T04:41:43;12.68;;;9.48;;
61385;SDS011;47256;18.904;-99.054;2022-10-15T04:44:23;18.98;;;10.00;;
61385;SDS011;47256;18.904;-99.054;2022-10-15T04:46:55;14.68;;;9.23;;
61385;SDS011;47256;18.904;-99.054;2022-10-15T04:49:33;19.10;;;10.30;;
61385;SDS011;47256;18.904;-99.054;2022-10-15T04:52:06;19.15;;;13.15;;
61385;SDS011;47256;18.904;-99.054;2022-10-15T04:54:41;20.27;;;12.60;;
61385;SDS011;47256;18.904;-99.054;2022-10-15T04:57:09;20.67;;;11.52;;
61385;SDS011;47256;18.904;-99.054;2022-10-15T04:59:37;14.48;;;10.73;;
61385;SDS011;47256;18.904;-99.054;2022-10-15T05:02:28;18.42;;;10.90;;
61385;SDS011;47256;18.904;-99.054;2022-10-15T05:05:28;15.65;;;9.93;;
61385;SDS011;47256;18.904;-99.054;2022-10-15T05:07:59;16.55;;;11.45;;
61385;SDS011;47256;18.904;-99.054;2022-10-15T05:10:29;12.68;;;8.32;;
61385;SDS011;47256;18.904;-99.054;2022-10-15T05:13:00;11.48;;;7.75;;
61385;SDS011;47256;18.904;-99.054;2022-10-15T05:15:33;11.27;;;8.75;;
61385;SDS011;47256;18.904;-99.054;2022-10-15T05:18:03;12.63;;;7.95;;
61385;SDS011;47256;18.904;-99.054;2022-10-15T05:20:43;11.02;;;8.85;;
61385;SDS011;47256;18.904;-99.054;2022-10-15T05:23:14;11.23;;;7.95;;
61385;SDS011;47256;18.904;-99.054;2022-10-15T05:25:52;13.30;;;8.02;;
61385;SDS011;47256;18.904;-99.054;2022-10-15T05:28:22;16.15;;;8.63;;
61385;SDS011;47256;18.904;-99.054;2022-10-15T05:30:49;14.27;;;7.50;;
61385;SDS011;47256;18.904;-99.054;2022-10-15T05:33:16;12.00;;;7.75;;
61385;SDS011;47256;18.904;-99.054;2022-10-15T05:35:43;16.92;;;8.73;;
61385;SDS011;47256;18.904;-99.054;2022-10-15T05:38:14;12.27;;;8.55;;
61385;SDS011;47256;18.904;-99.054;2022-10-15T05:40:46;15.70;;;7.95;;
61385;SDS011;47256;18.904;-99.054;2022-10-15T05:43:18;16.13;;;8.70;;
61385;SDS011;47256;18.904;-99.054;2022-10-15T05:45:47;14.07;;;8.20;;
61385;SDS011;47256;18.904;-99.054;2022-10-15T05:48:17;12.85;;;8.30;;
61385;SDS011;47256;18.904;-99.054;2022-10-15T05:50:44;11.55;;;8.02;;
61385;SDS011;47256;18.904;-99.054;2022-10-15T05:53:20;11.18;;;8.55;;
61385;SDS011;47256;18.904;-99.054;2022-10-15T05:55:52;14.85;;;8.73;;
61385;SDS011;47256;18.904;-99.054;2022-10-15T05:58:20;12.73;;;8.15;;
61385;SDS011;47256;18.904;-99.054;2022-10-15T06:00:55;12.60;;;9.20;;
61385;SDS011;47256;18.904;-99.054;2022-10-15T06:03:24;16.75;;;9.27;;
61385;SDS011;47256;18.904;-99.054;2022-10-15T06:05:52;13.18;;;8.68;;
61385;SDS011;47256;18.904;-99.054;2022-10-15T06:08:20;18.15;;;8.77;;
61385;SDS011;47256;18.904;-99.054;2022-10-15T06:10:48;12.88;;;8.50;;
61385;SDS011;47256;18.904;-99.054;2022-10-15T06:13:16;12.82;;;8.35;;
61385;SDS011;47256;18.904;-99.054;2022-10-15T06:15:44;12.05;;;8.05;;
61385;SDS011;47256;18.904;-99.054;2022-10-15T06:18:12;14.70;;;8.15;;
61385;SDS011;47256;18.904;-99.054;2022-10-15T06:20:42;14.52;;;8.05;;
61385;SDS011;47256;18.904;-99.054;2022-10-15T06:23:10;15.07;;;9.18;;
61385;SDS011;47256;18.904;-99.054;2022-10-15T06:25:38;16.17;;;9.27;;
61385;SDS011;47256;18.904;-99.054;2022-10-15T06:28:05;14.63;;;9.13;;
61385;SDS011;47256;18.904;-99.054;2022-10-15T06:30:43;13.57;;;8.70;;
61385;SDS011;47256;18.904;-99.054;2022-10-15T06:33:10;13.32;;;8.55;;
61385;SDS011;47256;18.904;-99.054;2022-10-15T06:35:40;12.88;;;8.23;;
61385;SDS011;47256;18.904;-99.054;2022-10-15T06:38:08;21.05;;;9.38;;
61385;SDS011;47256;18.904;-99.054;2022-10-15T06:40:36;15.70;;;8.40;;
61385;SDS011;47256;18.904;-99.054;2022-10-15T06:43:04;12.20;;;8.40;;
61385;SDS011;47256;18.904;-99.054;2022-10-15T06:45:34;14.32;;;8.38;;
61385;SDS011;47256;18.904;-99.054;2022-10-15T06:48:18;17.33;;;8.27;;
61385;SDS011;47256;18.904;-99.054;2022-10-15T06:50:45;10.65;;;7.95;;
61385;SDS011;47256;18.904;-99.054;2022-10-15T06:53:12;10.75;;;8.55;;
61385;SDS011;47256;18.904;-99.054;2022-10-15T06:55:42;16.35;;;7.85;;
61385;SDS011;47256;18.904;-99.054;2022-10-15T06:58:10;14.88;;;8.60;;
61385;SDS011;47256;18.904;-99.054;2022-10-15T07:00:37;15.60;;;8.10;;
61385;SDS011;47256;18.904;-99.054;2022-10-15T07:03:05;16.38;;;8.02;;
61385;SDS011;47256;18.904;-99.054;2022-10-15T07:05:33;16.08;;;8.75;;
61385;SDS011;47256;18.904;-99.054;2022-10-15T07:08:00;15.05;;;8.65;;
61385;SDS011;47256;18.904;-99.054;2022-10-15T07:10:30;10.88;;;7.68;;
61385;SDS011;47256;18.904;-99.054;2022-10-15T07:12:58;14.77;;;8.00;;
61385;SDS011;47256;18.904;-99.054;2022-10-15T07:15:26;11.40;;;9.02;;
61385;SDS011;47256;18.904;-99.054;2022-10-15T07:17:54;12.18;;;8.50;;
61385;SDS011;47256;18.904;-99.054;2022-10-15T07:20:27;16.95;;;8.82;;
61385;SDS011;47256;18.904;-99.054;2022-10-15T07:22:58;13.75;;;9.77;;
61385;SDS011;47256;18.904;-99.054;2022-10-15T07:25:32;14.70;;;9.70;;
61385;SDS011;47256;18.904;-99.054;2022-10-15T07:28:00;13.07;;;9.18;;
61385;SDS011;47256;18.904;-99.054;2022-10-15T07:30:29;14.18;;;8.45;;
61385;SDS011;47256;18.904;-99.054;2022-10-15T07:32:59;12.20;;;8.68;;
61385;SDS011;47256;18.904;-99.054;2022-10-15T07:35:26;13.70;;;8.40;;
61385;SDS011;47256;18.904;-99.054;2022-10-15T07:37:59;12.25;;;7.88;;
61385;SDS011;47256;18.904;-99.054;2022-10-15T07:40:27;19.02;;;8.68;;
61385;SDS011;47256;18.904;-99.054;2022-10-15T07:42:55;11.70;;;7.97;;
61385;SDS011;47256;18.904;-99.054;2022-10-15T07:45:30;18.60;;;8.63;;
61385;SDS011;47256;18.904;-99.054;2022-10-15T07:48:00;12.05;;;7.90;;
61385;SDS011;47256;18.904;-99.054;2022-10-15T07:50:28;13.95;;;7.50;;
61385;SDS011;47256;18.904;-99.054;2022-10-15T07:52:59;13.23;;;9.00;;
61385;SDS011;47256;18.904;-99.054;2022-10-15T07:55:26;15.32;;;9.57;;
61385;SDS011;47256;18.904;-99.054;2022-10-15T07:57:55;18.13;;;10.25;;
61385;SDS011;47256;18.904;-99.054;2022-10-15T08:00:23;22.55;;;10.23;;
61385;SDS011;47256;18.904;-99.054;2022-10-15T08:02:50;15.32;;;10.32;;
61385;SDS011;47256;18.904;-99.054;2022-10-15T08:05:19;20.20;;;11.27;;
61385;SDS011;47256;18.904;-99.054;2022-10-15T08:07:46;17.52;;;9.63;;
61385;SDS011;47256;18.904;-99.054;2022-10-15T08:10:13;17.48;;;10.05;;
61385;SDS011;47256;18.904;-99.054;2022-10-15T08:12:40;18.20;;;11.38;;
61385;SDS011;47256;18.904;-99.054;2022-10-15T08:15:07;20.50;;;12.20;;
61385;SDS011;47256;18.904;-99.054;2022-10-15T08:17:34;20.77;;;11.07;;
61385;SDS011;47256;18.904;-99.054;2022-10-15T08:20:01;16.90;;;10.57;;
61385;SDS011;47256;18.904;-99.054;2022-10-15T08:22:29;16.23;;;10.38;;
61385;SDS011;47256;18.904;-99.054;2022-10-15T08:24:56;15.63;;;9.90;;
61385;SDS011;47256;18.904;-99.054;2022-10-15T08:27:23;13.05;;;10.18;;
61385;SDS011;47256;18.904;-99.054;2022-10-15T08:29:55;11.07;;;9.75;;
61385;SDS011;47256;18.904;-99.054;2022-10-15T08:32:22;13.93;;;8.68;;
61385;SDS011;47256;18.904;-99.054;2022-10-15T08:34:53;15.50;;;9.10;;
61385;SDS011;47256;18.904;-99.054;2022-10-15T08:37:20;11.30;;;8.70;;
61385;SDS011;47256;18.904;-99.054;2022-10-15T08:39:47;16.42;;;9.40;;
61385;SDS011;47256;18.904;-99.054;2022-10-15T08:42:19;17.38;;;10.23;;
61385;SDS011;47256;18.904;-99.054;2022-10-15T08:45:50;19.73;;;9.93;;
61385;SDS011;47256;18.904;-99.054;2022-10-15T08:48:07;14.32;;;10.73;;
61385;SDS011;47256;18.904;-99.054;2022-10-15T08:53:16;21.27;;;10.50;;
61385;SDS011;47256;18.904;-99.054;2022-10-15T08:55:54;17.67;;;9.93;;
61385;SDS011;47256;18.904;-99.054;2022-10-15T09:06:52;15.38;;;9.15;;
61385;SDS011;47256;18.904;-99.054;2022-10-15T09:15:19;13.85;;;9.88;;
61385;SDS011;47256;18.904;-99.054;2022-10-15T09:17:49;15.82;;;8.18;;
61385;SDS011;47256;18.904;-99.054;2022-10-15T09:20:24;15.90;;;9.32;;
61385;SDS011;47256;18.904;-99.054;2022-10-15T09:22:56;17.90;;;9.93;;
61385;SDS011;47256;18.904;-99.054;2022-10-15T09:25:24;12.95;;;9.23;;
61385;SDS011;47256;18.904;-99.054;2022-10-15T09:30:48;17.05;;;9.57;;
61385;SDS011;47256;18.904;-99.054;2022-10-15T09:33:30;20.88;;;10.05;;
61385;SDS011;47256;18.904;-99.054;2022-10-15T09:36:05;14.35;;;8.48;;
61385;SDS011;47256;18.904;-99.054;2022-10-15T09:41:25;17.25;;;10.35;;
61385;SDS011;47256;18.904;-99.054;2022-10-15T09:44:26;14.77;;;9.98;;
61385;SDS011;47256;18.904;-99.054;2022-10-15T09:46:59;13.15;;;9.68;;
61385;SDS011;47256;18.904;-99.054;2022-10-15T09:49:27;13.15;;;9.80;;
61385;SDS011;47256;18.904;-99.054;2022-10-15T09:54:50;22.27;;;10.25;;
61385;SDS011;47256;18.904;-99.054;2022-10-15T09:57:23;15.15;;;9.27;;
61385;SDS011;47256;18.904;-99.054;2022-10-15T09:59:56;16.52;;;10.35;;
61385;SDS011;47256;18.904;-99.054;2022-10-15T10:02:26;17.52;;;10.07;;
61385;SDS011;47256;18.904;-99.054;2022-10-15T10:04:54;14.80;;;8.95;;
61385;SDS011;47256;18.904;-99.054;2022-10-15T10:07:30;14.68;;;9.68;;
61385;SDS011;47256;18.904;-99.054;2022-10-15T10:10:03;14.13;;;9.13;;
61385;SDS011;47256;18.904;-99.054;2022-10-15T10:12:54;19.55;;;10.77;;
61385;SDS011;47256;18.904;-99.054;2022-10-15T10:17:58;14.07;;;9.70;;
61385;SDS011;47256;18.904;-99.054;2022-10-15T10:20:27;17.38;;;8.68;;
61385;SDS011;47256;18.904;-99.054;2022-10-15T10:22:57;15.30;;;9.82;;
61385;SDS011;47256;18.904;-99.054;2022-10-15T10:25:28;19.40;;;9.80;;
61385;SDS011;47256;18.904;-99.054;2022-10-15T10:33:51;13.32;;;9.73;;
61385;SDS011;47256;18.904;-99.054;2022-10-15T10:39:00;16.13;;;10.05;;
61385;SDS011;47256;18.904;-99.054;2022-10-15T10:44:30;16.17;;;11.02;;
61385;SDS011;47256;18.904;-99.054;2022-10-15T10:47:07;14.05;;;10.35;;
61385;SDS011;47256;18.904;-99.054;2022-10-15T10:49:41;16.08;;;10.30;;
61385;SDS011;47256;18.904;-99.054;2022-10-15T10:54:54;17.13;;;9.27;;
61385;SDS011;47256;18.904;-99.054;2022-10-15T10:57:31;12.98;;;10.18;;
61385;SDS011;47256;18.904;-99.054;2022-10-15T11:00:06;14.13;;;9.43;;
61385;SDS011;47256;18.904;-99.054;2022-10-15T11:02:38;15.25;;;9.68;;
61385;SDS011;47256;18.904;-99.054;2022-10-15T11:05:10;13.93;;;9.05;;
61385;SDS011;47256;18.904;-99.054;2022-10-15T11:10:20;13.70;;;10.48;;
61385;SDS011;47256;18.904;-99.054;2022-10-15T11:13:19;17.15;;;9.63;;
61385;SDS011;47256;18.904;-99.054;2022-10-15T11:22:02;14.43;;;9.52;;
61385;SDS011;47256;18.904;-99.054;2022-10-15T11:27:33;14.55;;;9.90;;
61385;SDS011;47256;18.904;-99.054;2022-10-15T11:30:14;19.50;;;11.02;;
61385;SDS011;47256;18.904;-99.054;2022-10-15T11:41:54;15.55;;;8.65;;
61385;SDS011;47256;18.904;-99.054;2022-10-15T11:47:27;11.43;;;9.00;;
61385;SDS011;47256;18.904;-99.054;2022-10-15T11:52:59;14.45;;;8.63;;
61385;SDS011;47256;18.904;-99.054;2022-10-15T11:55:46;24.17;;;10.57;;
61385;SDS011;47256;18.904;-99.054;2022-10-15T12:01:00;14.68;;;8.98;;
61385;SDS011;47256;18.904;-99.054;2022-10-15T12:03:41;19.20;;;9.73;;
61385;SDS011;47256;18.904;-99.054;2022-10-15T12:06:20;12.95;;;8.93;;
61385;SDS011;47256;18.904;-99.054;2022-10-15T12:08:52;16.85;;;10.32;;
61385;SDS011;47256;18.904;-99.054;2022-10-15T12:12:05;13.55;;;8.88;;
61385;SDS011;47256;18.904;-99.054;2022-10-15T12:14:39;17.08;;;8.70;;
61385;SDS011;47256;18.904;-99.054;2022-10-15T12:17:38;12.20;;;8.82;;
61385;SDS011;47256;18.904;-99.054;2022-10-15T12:20:25;19.45;;;9.80;;
61385;SDS011;47256;18.904;-99.054;2022-10-15T12:23:00;29.92;;;14.90;;
61385;SDS011;47256;18.904;-99.054;2022-10-15T12:28:01;23.38;;;10.63;;
61385;SDS011;47256;18.904;-99.054;2022-10-15T12:30:30;25.42;;;9.73;;
61385;SDS011;47256;18.904;-99.054;2022-10-15T12:33:03;19.48;;;10.93;;
61385;SDS011;47256;18.904;-99.054;2022-10-15T12:35:55;19.52;;;10.38;;
61385;SDS011;47256;18.904;-99.054;2022-10-15T12:38:29;17.77;;;10.20;;
61385;SDS011;47256;18.904;-99.054;2022-10-15T12:41:08;18.05;;;10.38;;
61385;SDS011;47256;18.904;-99.054;2022-10-15T12:43:40;23.17;;;11.20;;
61385;SDS011;47256;18.904;-99.054;2022-10-15T12:46:13;32.78;;;11.90;;
61385;SDS011;47256;18.904;-99.054;2022-10-15T12:48:41;20.65;;;11.82;;
61385;SDS011;47256;18.904;-99.054;2022-10-15T12:53:48;28.20;;;12.50;;
61385;SDS011;47256;18.904;-99.054;2022-10-15T12:56:24;29.23;;;11.75;;
61385;SDS011;47256;18.904;-99.054;2022-10-15T12:59:27;25.73;;;10.60;;
61385;SDS011;47256;18.904;-99.054;2022-10-15T13:01:59;33.67;;;12.25;;
61385;SDS011;47256;18.904;-99.054;2022-10-15T13:04:40;19.90;;;10.13;;
61385;SDS011;47256;18.904;-99.054;2022-10-15T13:09:37;24.38;;;12.32;;
61385;SDS011;47256;18.904;-99.054;2022-10-15T13:12:15;23.00;;;12.68;;
61385;SDS011;47256;18.904;-99.054;2022-10-15T13:14:57;22.30;;;11.82;;
61385;SDS011;47256;18.904;-99.054;2022-10-15T13:17:30;19.42;;;10.98;;
61385;SDS011;47256;18.904;-99.054;2022-10-15T13:19:58;26.73;;;13.38;;
61385;SDS011;47256;18.904;-99.054;2022-10-15T13:25:02;25.00;;;12.63;;
61385;SDS011;47256;18.904;-99.054;2022-10-15T13:27:31;31.88;;;12.70;;
61385;SDS011;47256;18.904;-99.054;2022-10-15T13:32:50;25.50;;;12.52;;
61385;SDS011;47256;18.904;-99.054;2022-10-15T13:37:48;27.27;;;12.02;;
61385;SDS011;47256;18.904;-99.054;2022-10-15T13:40:23;20.48;;;12.80;;
61385;SDS011;47256;18.904;-99.054;2022-10-15T13:45:45;32.03;;;11.70;;
61385;SDS011;47256;18.904;-99.054;2022-10-15T13:48:21;23.33;;;11.27;;
61385;SDS011;47256;18.904;-99.054;2022-10-15T13:50:59;21.58;;;10.75;;
61385;SDS011;47256;18.904;-99.054;2022-10-15T13:53:31;22.40;;;11.95;;
61385;SDS011;47256;18.904;-99.054;2022-10-15T13:56:17;32.38;;;12.40;;
61385;SDS011;47256;18.904;-99.054;2022-10-15T13:58:54;19.63;;;10.55;;
61385;SDS011;47256;18.904;-99.054;2022-10-15T14:01:23;23.52;;;11.02;;
61385;SDS011;47256;18.904;-99.054;2022-10-15T14:03:58;19.25;;;11.15;;
61385;SDS011;47256;18.904;-99.054;2022-10-15T14:06:31;23.83;;;12.25;;
61385;SDS011;47256;18.904;-99.054;2022-10-15T14:09:00;16.65;;;11.00;;
61385;SDS011;47256;18.904;-99.054;2022-10-15T14:11:44;20.60;;;9.90;;
61385;SDS011;47256;18.904;-99.054;2022-10-15T14:16:56;18.95;;;10.43;;
61385;SDS011;47256;18.904;-99.054;2022-10-15T14:19:25;18.40;;;10.65;;
61385;SDS011;47256;18.904;-99.054;2022-10-15T14:21:56;15.95;;;9.90;;
61385;SDS011;47256;18.904;-99.054;2022-10-15T14:24:38;21.42;;;8.38;;
61385;SDS011;47256;18.904;-99.054;2022-10-15T14:27:11;20.27;;;8.30;;
61385;SDS011;47256;18.904;-99.054;2022-10-15T14:29:42;23.42;;;9.23;;
61385;SDS011;47256;18.904;-99.054;2022-10-15T14:32:22;25.65;;;8.93;;
61385;SDS011;47256;18.904;-99.054;2022-10-15T14:35:01;20.38;;;9.13;;
61385;SDS011;47256;18.904;-99.054;2022-10-15T14:40:16;59.43;;;23.13;;
61385;SDS011;47256;18.904;-99.054;2022-10-15T14:45:38;28.88;;;11.40;;
61385;SDS011;47256;18.904;-99.054;2022-10-15T14:48:33;21.02;;;9.93;;
61385;SDS011;47256;18.904;-99.054;2022-10-15T14:51:03;45.85;;;21.90;;
61385;SDS011;47256;18.904;-99.054;2022-10-15T14:53:36;19.70;;;9.10;;
61385;SDS011;47256;18.904;-99.054;2022-10-15T14:56:19;29.48;;;11.35;;
61385;SDS011;47256;18.904;-99.054;2022-10-15T14:58:52;55.63;;;16.58;;
61385;SDS011;47256;18.904;-99.054;2022-10-15T15:01:21;10.43;;;6.90;;
61385;SDS011;47256;18.904;-99.054;2022-10-15T15:03:50;21.27;;;7.85;;
61385;SDS011;47256;18.904;-99.054;2022-10-15T15:06:20;18.48;;;6.55;;
61385;SDS011;47256;18.904;-99.054;2022-10-15T15:08:47;130.90;;;20.63;;
61385;SDS011;47256;18.904;-99.054;2022-10-15T15:11:18;10.45;;;6.38;;
61385;SDS011;47256;18.904;-99.054;2022-10-15T15:13:49;17.25;;;7.25;;
61385;SDS011;47256;18.904;-99.054;2022-10-15T15:16:17;33.92;;;9.85;;
61385;SDS011;47256;18.904;-99.054;2022-10-15T15:18:45;15.00;;;7.53;;
61385;SDS011;47256;18.904;-99.054;2022-10-15T15:21:14;12.18;;;6.22;;
61385;SDS011;47256;18.904;-99.054;2022-10-15T15:23:45;11.43;;;7.32;;
61385;SDS011;47256;18.904;-99.054;2022-10-15T15:26:15;13.35;;;6.70;;
61385;SDS011;47256;18.904;-99.054;2022-10-15T15:28:43;14.98;;;8.32;;
61385;SDS011;47256;18.904;-99.054;2022-10-15T15:31:15;14.60;;;5.68;;
61385;SDS011;47256;18.904;-99.054;2022-10-15T15:33:43;11.27;;;5.90;;
61385;SDS011;47256;18.904;-99.054;2022-10-15T15:36:14;14.82;;;7.22;;
61385;SDS011;47256;18.904;-99.054;2022-10-15T15:38:42;12.27;;;5.95;;
61385;SDS011;47256;18.904;-99.054;2022-10-15T15:41:17;9.30;;;5.57;;
61385;SDS011;47256;18.904;-99.054;2022-10-15T15:46:16;15.57;;;7.70;;
61385;SDS011;47256;18.904;-99.054;2022-10-15T15:48:44;14.77;;;7.05;;
61385;SDS011;47256;18.904;-99.054;2022-10-15T15:53:47;15.10;;;6.97;;
61385;SDS011;47256;18.904;-99.054;2022-10-15T15:56:14;13.63;;;7.05;;
61385;SDS011;47256;18.904;-99.054;2022-10-15T15:58:42;13.43;;;8.07;;
61385;SDS011;47256;18.904;-99.054;2022-10-15T16:01:10;13.80;;;7.43;;
61385;SDS011;47256;18.904;-99.054;2022-10-15T16:03:37;17.10;;;7.28;;
61385;SDS011;47256;18.904;-99.054;2022-10-15T16:06:05;12.98;;;7.45;;
61385;SDS011;47256;18.904;-99.054;2022-10-15T16:08:34;19.85;;;8.88;;
61385;SDS011;47256;18.904;-99.054;2022-10-15T16:11:02;14.43;;;8.10;;
61385;SDS011;47256;18.904;-99.054;2022-10-15T16:13:33;14.20;;;8.68;;
61385;SDS011;47256;18.904;-99.054;2022-10-15T16:16:01;18.70;;;8.52;;
61385;SDS011;47256;18.904;-99.054;2022-10-15T16:18:28;10.93;;;6.38;;
61385;SDS011;47256;18.904;-99.054;2022-10-15T16:20:56;13.70;;;7.82;;
61385;SDS011;47256;18.904;-99.054;2022-10-15T16:23:25;12.35;;;7.53;;
61385;SDS011;47256;18.904;-99.054;2022-10-15T16:25:52;21.15;;;7.90;;
61385;SDS011;47256;18.904;-99.054;2022-10-15T16:28:24;11.05;;;7.97;;
61385;SDS011;47256;18.904;-99.054;2022-10-15T16:30:51;12.57;;;8.20;;
61385;SDS011;47256;18.904;-99.054;2022-10-15T16:33:19;11.38;;;7.10;;
61385;SDS011;47256;18.904;-99.054;2022-10-15T16:35:54;99.82;;;16.30;;
61385;SDS011;47256;18.904;-99.054;2022-10-15T16:38:23;33.22;;;9.68;;
61385;SDS011;47256;18.904;-99.054;2022-10-15T16:40:50;144.90;;;18.15;;
61385;SDS011;47256;18.904;-99.054;2022-10-15T16:43:17;21.10;;;7.43;;
61385;SDS011;47256;18.904;-99.054;2022-10-15T16:45:44;12.35;;;7.53;;